Terminal Aerodrome Forecast
Issued by NWS

Home | Current Version | Previous Version | Text Only | Print | Product List | Glossary On
Versions: 1 2 3 4 5 6 7 8 9 10 11 12
000
FTUS45 KMSO 262338
TAFSMN
TAF
KSMN 262338Z 2700/2724 35007KT P6SM VCTS SCT120CB
     FM270300 25020G40KT P6SM -TSRA SCT070CB BKN100
     FM270600 31007KT P6SM -SHRA BKN080
      AMD LTD TO CLD VIS AND WIND=

USA.gov is the U.S. government's official web portal to all federal, state and local government web resources and services.